Wedowee, Alabama
Current Conditions -  °F | °C
As of 11:53 PM on Friday 19 Dec 2014 (Local Time) from KANB Reporting Station
Light Rain Light Rain  
Wind Chill: 42°   Ceiling: 6000
Heat Index: 42°   Visibility: 6mi
Dew Point: 40°   Wind: 0mph
Humidity: 92%   Direction: NA
Pressure: 30.15"   Gusts: NA
Location:  33.31°N, 85.48°W
Report Text: KANB 200553Z AUTO 00000KT 6SM -RA BR OVC060 06/04 A3015 RMK AO2 SLP217 P0003 60015 T00560044 10083 20056 401001022 56010
Loading
Personal Weather Stations






























Interactive Weather Map New forecast layout! Learn more

10-Day Weather Forecast

Advertisements
Track Severe Weather on mobile